createdAt,value
2023-03-16T00:01:14.198Z,3.42
2023-03-16T00:03:42.578Z,3.35
2023-03-16T00:06:10.920Z,3.42
2023-03-16T00:08:39.302Z,3.26
2023-03-16T00:11:07.626Z,3.11
2023-03-16T00:13:36.014Z,2.98
2023-03-16T00:16:05.321Z,2.88
2023-03-16T00:18:39.151Z,2.80
2023-03-16T00:21:08.042Z,2.97
2023-03-16T00:23:38.149Z,2.89
2023-03-16T00:26:09.024Z,2.76
2023-03-16T00:28:38.661Z,2.71
2023-03-16T00:31:09.266Z,2.77
2023-03-16T00:33:40.750Z,2.76
2023-03-16T00:36:11.457Z,2.67
2023-03-16T00:38:45.594Z,2.68
2023-03-16T00:41:17.404Z,2.62
2023-03-16T00:43:46.444Z,2.51
2023-03-16T00:46:16.558Z,2.50
2023-03-16T00:48:48.485Z,2.40
2023-03-16T00:51:19.068Z,2.27
2023-03-16T00:53:48.954Z,2.32
2023-03-16T00:56:18.682Z,2.23
2023-03-16T00:58:47.885Z,2.23
2023-03-16T01:01:19.034Z,2.26
2023-03-16T01:03:49.237Z,2.15
2023-03-16T01:06:20.895Z,2.13
2023-03-16T01:08:54.410Z,2.26
2023-03-16T01:11:24.273Z,2.20
2023-03-16T01:13:54.497Z,2.08
2023-03-16T01:16:23.767Z,2.10
2023-03-16T01:18:53.957Z,2.09
2023-03-16T01:21:22.919Z,2.05
2023-03-16T01:23:54.064Z,2.08
2023-03-16T01:26:25.286Z,1.99
2023-03-16T01:28:54.523Z,1.92
2023-03-16T01:31:23.219Z,1.98
2023-03-16T01:33:54.384Z,1.88
2023-03-16T01:36:23.153Z,1.78
2023-03-16T01:38:54.138Z,1.72
2023-03-16T01:41:25.972Z,1.79
2023-03-16T01:43:58.586Z,1.77
2023-03-16T01:46:28.657Z,1.77
2023-03-16T01:49:06.775Z,1.74
2023-03-16T01:51:43.139Z,1.61
2023-03-16T01:54:17.729Z,1.62
2023-03-16T01:56:53.163Z,1.50
2023-03-16T01:59:26.618Z,1.72
2023-03-16T02:01:55.332Z,1.70
2023-03-16T02:04:37.716Z,1.55
2023-03-16T02:07:10.455Z,1.52
2023-03-16T02:09:44.273Z,1.60
2023-03-16T02:12:18.034Z,1.50
2023-03-16T02:14:48.565Z,1.51
2023-03-16T02:17:19.303Z,1.50
2023-03-16T02:19:57.423Z,1.34
2023-03-16T02:22:25.888Z,1.20
2023-03-16T02:24:57.385Z,1.03
2023-03-16T02:27:37.744Z,0.95
2023-03-16T02:30:13.902Z,0.82
2023-03-16T02:32:43.741Z,0.81
2023-03-16T02:35:13.236Z,0.71
2023-03-16T02:37:41.867Z,0.54
2023-03-16T02:40:23.921Z,0.54
2023-03-16T02:42:56.347Z,0.55
2023-03-16T02:45:33.519Z,0.48
2023-03-16T02:48:06.401Z,0.45
2023-03-16T02:50:35.102Z,0.43
2023-03-16T02:53:03.737Z,0.31
2023-03-16T02:55:32.392Z,0.30
2023-03-16T02:58:00.954Z,0.36
2023-03-16T03:00:30.897Z,0.27
2023-03-16T03:02:59.721Z,0.23
2023-03-16T03:05:28.058Z,0.17
2023-03-16T03:07:56.704Z,0.05
2023-03-16T03:10:25.011Z,0.17
2023-03-16T03:12:53.589Z,-0.01
2023-03-16T03:15:21.925Z,-0.08
2023-03-16T03:17:51.736Z,-0.11
2023-03-16T03:20:22.507Z,-0.03
2023-03-16T03:22:52.634Z,-0.15
2023-03-16T03:25:23.081Z,-0.38
2023-03-16T03:27:54.465Z,-0.45
2023-03-16T03:30:24.874Z,-0.55
2023-03-16T03:32:54.739Z,-0.69
2023-03-16T03:35:23.620Z,-0.77
2023-03-16T03:37:52.244Z,-0.90
2023-03-16T03:40:21.551Z,-0.96
2023-03-16T03:42:49.995Z,-0.96
2023-03-16T03:45:18.527Z,-1.05
2023-03-16T03:47:47.303Z,-1.11
2023-03-16T03:50:17.816Z,-1.08
2023-03-16T03:52:46.074Z,-1.11
2023-03-16T03:55:14.708Z,-0.99
2023-03-16T03:57:42.995Z,-0.79
2023-03-16T04:00:13.594Z,-0.82
2023-03-16T04:02:42.686Z,-0.68
2023-03-16T04:05:13.819Z,-0.63
2023-03-16T04:07:43.948Z,-0.76
2023-03-16T04:10:15.665Z,-0.74
2023-03-16T04:12:45.373Z,-0.59
2023-03-16T04:15:13.842Z,-0.56
2023-03-16T04:17:42.584Z,-0.38
2023-03-16T04:20:15.224Z,-0.39
2023-03-16T04:22:45.090Z,-0.36
2023-03-16T04:25:16.091Z,-0.55
2023-03-16T04:27:47.071Z,-0.65
2023-03-16T04:30:16.301Z,-0.84
2023-03-16T04:32:44.762Z,-0.86
2023-03-16T04:35:13.040Z,-1.14
2023-03-16T04:37:41.622Z,-1.31
2023-03-16T04:40:16.904Z,-1.38
2023-03-16T04:42:45.860Z,-1.37
2023-03-16T04:45:16.113Z,-1.44
2023-03-16T04:47:44.610Z,-1.48
2023-03-16T04:50:13.344Z,-1.48
2023-03-16T04:52:42.105Z,-1.42
2023-03-16T04:55:14.527Z,-1.45
2023-03-16T04:57:43.282Z,-1.31
2023-03-16T05:00:19.038Z,-1.40
2023-03-16T05:02:48.522Z,-1.49
2023-03-16T05:05:17.598Z,-1.54
2023-03-16T05:07:47.185Z,-1.69
2023-03-16T05:10:19.279Z,-1.78
2023-03-16T05:12:48.167Z,-1.75
2023-03-16T05:15:17.235Z,-1.86
2023-03-16T05:17:46.671Z,-1.76
2023-03-16T05:20:16.719Z,-1.78
2023-03-16T05:22:48.181Z,-1.73
2023-03-16T05:25:20.017Z,-1.66
2023-03-16T05:27:50.806Z,-1.66
2023-03-16T05:30:21.761Z,-1.63
2023-03-16T05:32:51.480Z,-1.66
2023-03-16T05:35:21.253Z,-1.68
2023-03-16T05:37:51.561Z,-1.45
2023-03-16T05:40:23.277Z,-1.27
2023-03-16T05:42:58.082Z,-1.07
2023-03-16T05:45:26.265Z,-0.94
2023-03-16T05:47:54.641Z,-0.79
2023-03-16T05:50:23.700Z,-0.74
2023-03-16T05:52:52.429Z,-0.66
2023-03-16T05:55:22.438Z,-0.42
2023-03-16T05:57:51.344Z,-0.35
2023-03-16T06:00:21.518Z,-0.19
2023-03-16T06:02:52.408Z,-0.10
2023-03-16T06:05:25.085Z,-0.07
2023-03-16T06:07:54.302Z,0.18
2023-03-16T06:10:24.208Z,0.33
2023-03-16T06:12:52.906Z,0.45
2023-03-16T06:15:25.290Z,0.60
2023-03-16T06:17:55.854Z,0.76
2023-03-16T06:20:24.244Z,1.04
2023-03-16T06:22:54.612Z,1.16
2023-03-16T06:25:25.251Z,1.39
2023-03-16T06:27:56.352Z,1.48
2023-03-16T06:30:26.157Z,1.62
2023-03-16T06:32:55.583Z,1.95
2023-03-16T06:35:24.729Z,2.02
2023-03-16T06:37:56.721Z,2.22
2023-03-16T06:40:27.797Z,2.40
2023-03-16T06:42:59.695Z,2.53
2023-03-16T06:45:30.418Z,2.62
2023-03-16T06:47:59.541Z,2.84
2023-03-16T06:50:30.063Z,2.94
2023-03-16T06:53:00.496Z,3.12
2023-03-16T06:55:35.169Z,3.18
2023-03-16T06:58:03.485Z,3.16
2023-03-16T07:00:34.177Z,3.36
2023-03-16T07:03:03.239Z,3.46
2023-03-16T07:05:31.674Z,3.56
2023-03-16T07:08:00.224Z,3.66
2023-03-16T07:10:30.398Z,3.71
2023-03-16T07:12:59.190Z,3.77
2023-03-16T07:15:28.228Z,3.80
2023-03-16T07:17:58.302Z,4.05
2023-03-16T07:20:28.874Z,4.02
2023-03-16T07:22:59.355Z,4.14
2023-03-16T07:25:31.738Z,4.21
2023-03-16T07:28:00.910Z,4.62
2023-03-16T07:30:30.580Z,4.64
2023-03-16T07:32:59.147Z,4.79
2023-03-16T07:35:28.147Z,4.79
2023-03-16T07:37:56.639Z,4.97
2023-03-16T07:40:26.936Z,5.04
2023-03-16T07:43:00.671Z,5.18
2023-03-16T07:45:29.621Z,5.00
2023-03-16T07:47:59.532Z,5.11
2023-03-16T07:50:28.264Z,5.25
2023-03-16T07:52:56.779Z,5.27
2023-03-16T07:55:26.945Z,5.31
2023-03-16T07:57:57.042Z,5.24
2023-03-16T08:00:27.221Z,5.46
2023-03-16T08:02:57.568Z,5.56
2023-03-16T08:05:27.812Z,5.50
2023-03-16T08:07:57.368Z,5.56
2023-03-16T08:11:06.977Z,5.76
2023-03-16T08:13:37.056Z,5.79
2023-03-16T08:16:11.044Z,5.85
2023-03-16T08:18:39.417Z,5.83
2023-03-16T08:21:08.634Z,5.85
2023-03-16T08:23:37.320Z,5.76
2023-03-16T08:26:09.453Z,5.96
2023-03-16T08:28:39.355Z,6.14
2023-03-16T08:31:12.432Z,5.87
2023-03-16T08:33:41.157Z,6.03
2023-03-16T08:36:11.730Z,5.91
2023-03-16T08:38:41.083Z,6.07
2023-03-16T08:41:10.201Z,6.42
2023-03-16T08:43:43.378Z,6.57
2023-03-16T08:46:13.500Z,6.11
2023-03-16T08:48:42.758Z,6.36
2023-03-16T08:51:11.749Z,6.61
2023-03-16T08:53:40.414Z,6.50
2023-03-16T08:56:11.395Z,6.45
2023-03-16T08:58:45.369Z,6.57
2023-03-16T09:01:17.449Z,6.64
2023-03-16T09:03:47.012Z,6.68
2023-03-16T09:06:17.840Z,6.56
2023-03-16T09:08:47.880Z,6.75
2023-03-16T09:11:19.343Z,6.68
2023-03-16T09:13:52.768Z,6.87
2023-03-16T09:16:25.711Z,6.68
2023-03-16T09:18:59.338Z,6.72
2023-03-16T09:21:28.564Z,7.01
2023-03-16T09:23:57.005Z,7.21
2023-03-16T09:26:25.581Z,6.89
2023-03-16T09:28:56.170Z,6.89
2023-03-16T09:31:24.848Z,7.56
2023-03-16T09:33:54.289Z,7.21
2023-03-16T09:36:22.653Z,7.25
2023-03-16T09:38:51.245Z,7.31
2023-03-16T09:41:40.819Z,7.47
2023-03-16T09:44:25.152Z,7.63
2023-03-16T09:46:55.944Z,7.32
2023-03-16T09:49:28.760Z,7.23
2023-03-16T09:52:06.476Z,7.56
2023-03-16T09:54:42.370Z,8.00
2023-03-16T09:57:20.932Z,7.76
2023-03-16T09:59:50.753Z,7.56
2023-03-16T10:02:41.330Z,7.51
2023-03-16T10:05:13.646Z,7.56
2023-03-16T10:07:52.771Z,7.69
2023-03-16T10:10:33.430Z,7.71
2023-03-16T10:13:02.664Z,8.04
2023-03-16T10:15:36.996Z,7.72
2023-03-16T10:18:13.728Z,8.26
2023-03-16T10:20:42.315Z,8.06
2023-03-16T10:23:18.661Z,8.67
2023-03-16T10:25:49.417Z,8.27
2023-03-16T10:28:20.329Z,8.23
2023-03-16T10:30:52.171Z,8.47
2023-03-16T10:33:26.011Z,8.09
2023-03-16T10:36:01.468Z,8.76
2023-03-16T10:38:38.922Z,8.57
2023-03-16T10:41:22.635Z,8.71
2023-03-16T10:43:53.298Z,8.82
2023-03-16T10:46:25.022Z,8.59
2023-03-16T10:48:54.912Z,8.41
2023-03-16T10:51:27.177Z,8.31
2023-03-16T10:53:57.913Z,8.57
2023-03-16T10:56:52.300Z,8.44
2023-03-16T10:59:34.588Z,8.50
2023-03-16T11:02:17.903Z,8.21
2023-03-16T11:04:48.080Z,9.05
2023-03-16T11:07:21.528Z,8.61
2023-03-16T11:09:53.258Z,8.62
2023-03-16T11:12:27.547Z,8.80
2023-03-16T11:15:07.518Z,9.17
2023-03-16T11:17:44.635Z,9.67
2023-03-16T11:20:18.233Z,9.37
2023-03-16T11:22:48.663Z,8.95
2023-03-16T11:25:22.736Z,8.95
2023-03-16T11:27:57.768Z,9.10
2023-03-16T11:30:31.219Z,9.16
2023-03-16T11:33:04.211Z,8.61
2023-03-16T11:35:52.724Z,9.36
2023-03-16T11:38:34.549Z,9.30
2023-03-16T11:41:06.007Z,9.51
2023-03-16T11:43:53.826Z,9.40
2023-03-16T11:46:24.847Z,9.06
2023-03-16T11:49:24.609Z,9.22
2023-03-16T11:52:00.615Z,9.46
2023-03-16T11:54:42.410Z,9.36
2023-03-16T11:57:31.689Z,10.32
2023-03-16T12:00:15.090Z,9.40
2023-03-16T12:02:57.633Z,9.27
2023-03-16T12:05:48.983Z,9.48
2023-03-16T12:08:29.239Z,9.09
2023-03-16T12:11:04.931Z,9.36
2023-03-16T12:13:52.659Z,9.36
2023-03-16T12:16:33.176Z,9.75
2023-03-16T12:19:13.020Z,9.65
2023-03-16T12:21:47.027Z,9.61
2023-03-16T12:24:19.934Z,9.78
2023-03-16T12:26:49.695Z,9.94
2023-03-16T12:29:30.460Z,9.84
2023-03-16T12:32:09.305Z,9.70
2023-03-16T12:34:45.904Z,9.98
2023-03-16T12:37:36.030Z,9.84
2023-03-16T12:40:17.185Z,10.34
2023-03-16T12:43:10.780Z,10.29
2023-03-16T12:46:06.588Z,10.90
2023-03-16T12:48:40.205Z,11.00
2023-03-16T12:51:09.515Z,11.29
2023-03-16T12:53:48.211Z,11.53
2023-03-16T12:56:19.247Z,10.94
2023-03-16T12:58:49.844Z,11.49
2023-03-16T13:01:26.565Z,10.85
2023-03-16T13:04:02.192Z,11.44
2023-03-16T13:06:36.579Z,11.49
2023-03-16T13:09:07.696Z,11.29
2023-03-16T13:11:45.926Z,11.30
2023-03-16T13:14:18.424Z,11.57
2023-03-16T13:16:48.089Z,10.98
2023-03-16T13:19:28.405Z,11.84
2023-03-16T13:22:26.307Z,11.16
2023-03-16T13:25:01.186Z,9.92
2023-03-16T13:27:32.779Z,9.95
2023-03-16T13:30:05.355Z,10.34
2023-03-16T13:32:35.506Z,10.54
2023-03-16T13:35:07.059Z,9.84
2023-03-16T13:37:35.874Z,9.99
2023-03-16T13:40:19.252Z,10.16
2023-03-16T13:42:52.997Z,10.02
2023-03-16T13:45:23.900Z,10.03
2023-03-16T13:47:53.438Z,10.17
2023-03-16T13:50:23.620Z,10.49
2023-03-16T13:53:00.159Z,10.12
2023-03-16T13:55:36.087Z,10.32
2023-03-16T13:58:05.574Z,10.02
2023-03-16T14:00:37.061Z,10.10
2023-03-16T14:03:16.595Z,10.20
2023-03-16T14:05:45.889Z,10.02
2023-03-16T14:08:22.025Z,9.95
2023-03-16T14:10:58.621Z,9.73
2023-03-16T14:13:39.381Z,10.17
2023-03-16T14:16:14.648Z,9.92
2023-03-16T14:18:47.128Z,9.88
2023-03-16T14:21:18.057Z,10.13
2023-03-16T14:23:48.530Z,9.79
2023-03-16T14:26:23.359Z,10.06
2023-03-16T14:29:05.184Z,10.13
2023-03-16T14:31:36.725Z,10.17
2023-03-16T14:34:08.874Z,9.98
2023-03-16T14:36:39.093Z,9.86
2023-03-16T14:39:15.094Z,9.70
2023-03-16T14:41:45.859Z,9.86
2023-03-16T14:44:21.825Z,9.94
2023-03-16T14:46:50.841Z,9.74
2023-03-16T14:49:23.979Z,9.78
2023-03-16T14:51:54.859Z,9.65
2023-03-16T14:54:23.910Z,9.84
2023-03-16T14:56:56.176Z,9.43
2023-03-16T14:59:24.663Z,9.71
2023-03-16T15:01:54.756Z,9.58
2023-03-16T15:04:29.516Z,9.64
2023-03-16T15:06:59.043Z,9.82
2023-03-16T15:09:36.657Z,9.84
2023-03-16T15:12:16.422Z,9.82
2023-03-16T15:15:14.377Z,9.57
2023-03-16T15:17:46.182Z,9.62
2023-03-16T15:20:15.712Z,9.65
2023-03-16T15:23:35.215Z,9.58
2023-03-16T15:26:06.598Z,9.68
2023-03-16T15:28:36.387Z,9.51
2023-03-16T15:31:05.234Z,9.59
2023-03-16T15:33:35.387Z,9.52
2023-03-16T15:36:14.665Z,9.47
2023-03-16T15:38:47.176Z,9.44
2023-03-16T15:41:16.620Z,9.46
2023-03-16T15:43:48.053Z,9.44
2023-03-16T15:46:17.517Z,9.30
2023-03-16T15:48:45.962Z,9.36
2023-03-16T15:51:22.009Z,9.27
2023-03-16T15:53:53.404Z,9.28
2023-03-16T15:56:29.378Z,9.15
2023-03-16T15:59:02.215Z,9.17
2023-03-16T16:01:35.029Z,9.17
2023-03-16T16:04:03.707Z,9.12
2023-03-16T16:06:32.093Z,9.00
2023-03-16T16:09:01.738Z,8.96
2023-03-16T16:11:31.148Z,8.88
2023-03-16T16:14:02.164Z,8.80
2023-03-16T16:16:31.984Z,8.80
2023-03-16T16:19:00.404Z,8.83
2023-03-16T16:21:31.542Z,8.67
2023-03-16T16:24:02.393Z,8.64
2023-03-16T16:26:49.661Z,8.52
2023-03-16T16:29:23.800Z,8.37
2023-03-16T16:31:53.249Z,8.45
2023-03-16T16:34:24.638Z,8.27
2023-03-16T16:36:53.758Z,8.30
2023-03-16T16:39:22.388Z,8.04
2023-03-16T16:41:54.751Z,8.04
2023-03-16T16:44:34.399Z,7.93
2023-03-16T16:47:05.340Z,7.85
2023-03-16T16:49:35.371Z,7.82
2023-03-16T16:52:03.742Z,7.68
2023-03-16T16:54:33.381Z,7.58
2023-03-16T16:57:02.597Z,7.52
2023-03-16T16:59:35.170Z,7.56
2023-03-16T17:02:22.144Z,7.41
2023-03-16T17:04:52.364Z,7.34
2023-03-16T17:07:21.045Z,7.25
2023-03-16T17:09:51.469Z,7.20
2023-03-16T17:12:23.763Z,7.20
2023-03-16T17:14:53.731Z,7.06
2023-03-16T17:17:22.903Z,7.04
2023-03-16T17:19:53.369Z,7.04
2023-03-16T17:22:30.379Z,6.82
2023-03-16T17:25:00.524Z,6.76
2023-03-16T17:27:36.603Z,6.68
2023-03-16T17:30:24.460Z,6.59
2023-03-16T17:32:58.627Z,6.65
2023-03-16T17:35:30.566Z,6.71
2023-03-16T17:38:01.219Z,6.62
2023-03-16T17:40:33.649Z,6.36
2023-03-16T17:43:02.809Z,6.01
2023-03-16T17:45:35.848Z,5.87
2023-03-16T17:48:05.448Z,6.11
2023-03-16T17:50:34.326Z,5.80
2023-03-16T17:53:08.195Z,5.45
2023-03-16T17:55:36.705Z,5.19
2023-03-16T17:58:05.711Z,5.15
2023-03-16T18:00:37.242Z,4.85
2023-03-16T18:03:13.130Z,4.98
2023-03-16T18:05:43.977Z,5.45
2023-03-16T18:08:17.283Z,5.38
2023-03-16T18:10:48.179Z,5.42
2023-03-16T18:13:22.590Z,5.40
2023-03-16T18:15:52.856Z,5.48
2023-03-16T18:18:24.254Z,5.29
2023-03-16T18:20:54.971Z,4.84
2023-03-16T18:23:24.978Z,4.35
2023-03-16T18:25:55.062Z,4.12
2023-03-16T18:28:24.563Z,3.99
2023-03-16T18:30:54.998Z,3.78
2023-03-16T18:33:27.718Z,3.63
2023-03-16T18:36:00.140Z,3.47
2023-03-16T18:38:31.385Z,3.32
2023-03-16T18:41:02.533Z,3.29
2023-03-16T18:43:31.523Z,3.39
2023-03-16T18:46:02.236Z,3.39
2023-03-16T18:48:40.083Z,3.52
2023-03-16T18:51:14.325Z,3.53
2023-03-16T18:53:44.185Z,3.50
2023-03-16T18:56:21.426Z,3.53
2023-03-16T18:58:52.556Z,3.60
2023-03-16T19:01:30.904Z,3.67
2023-03-16T19:04:02.584Z,3.57
2023-03-16T19:06:33.264Z,3.59
2023-03-16T19:09:06.304Z,3.60
2023-03-16T19:11:44.156Z,3.57
2023-03-16T19:14:16.836Z,3.54
2023-03-16T19:16:48.284Z,3.49
2023-03-16T19:19:21.125Z,3.36
2023-03-16T19:21:56.291Z,3.36
2023-03-16T19:24:27.325Z,3.43
2023-03-16T19:26:57.607Z,3.33
2023-03-16T19:29:32.861Z,3.23
2023-03-16T19:32:04.307Z,3.27
2023-03-16T19:34:33.562Z,3.11
2023-03-16T19:37:01.889Z,3.16
2023-03-16T19:39:31.215Z,3.01
2023-03-16T19:42:03.580Z,3.01
2023-03-16T19:44:33.082Z,3.05
2023-03-16T19:47:04.742Z,2.94
2023-03-16T19:49:33.732Z,2.92
2023-03-16T19:52:02.303Z,2.91
2023-03-16T19:54:33.439Z,2.81
2023-03-16T19:57:08.940Z,2.87
2023-03-16T19:59:37.402Z,2.77
2023-03-16T20:02:25.191Z,2.54
2023-03-16T20:04:54.735Z,2.33
2023-03-16T20:07:23.852Z,2.19
2023-03-16T20:09:52.851Z,2.13
2023-03-16T20:12:25.418Z,2.13
2023-03-16T20:14:55.716Z,2.15
2023-03-16T20:17:28.166Z,2.06
2023-03-16T20:19:59.696Z,1.89
2023-03-16T20:22:29.618Z,1.67
2023-03-16T20:25:01.467Z,1.55
2023-03-16T20:27:30.804Z,1.51
2023-03-16T20:30:01.537Z,1.43
2023-03-16T20:32:35.249Z,1.44
2023-03-16T20:35:03.847Z,1.24
2023-03-16T20:37:34.467Z,1.22
2023-03-16T20:40:03.138Z,1.20
2023-03-16T20:42:33.263Z,1.19
2023-03-16T20:45:02.159Z,1.20
2023-03-16T20:47:33.229Z,1.13
2023-03-16T20:50:04.631Z,1.06
2023-03-16T20:52:33.933Z,0.99
2023-03-16T20:55:02.744Z,0.92
2023-03-16T20:57:33.828Z,0.88
2023-03-16T21:00:05.641Z,0.83
2023-03-16T21:02:38.586Z,0.68
2023-03-16T21:05:09.847Z,0.57
2023-03-16T21:07:40.026Z,0.48
2023-03-16T21:10:10.086Z,0.44
2023-03-16T21:12:44.751Z,0.41
2023-03-16T21:15:19.763Z,0.37
2023-03-16T21:18:01.278Z,0.26
2023-03-16T21:20:31.989Z,0.16
2023-03-16T21:23:02.558Z,0.09
2023-03-16T21:25:36.915Z,0.07
2023-03-16T21:28:06.699Z,0.14
2023-03-16T21:30:38.324Z,0.13
2023-03-16T21:33:14.998Z,0.16
2023-03-16T21:35:45.213Z,0.18
2023-03-16T21:38:19.142Z,0.13
2023-03-16T21:40:49.284Z,-0.03
2023-03-16T21:43:24.150Z,-0.01
2023-03-16T21:45:57.004Z,-0.03
2023-03-16T21:48:34.624Z,-0.08
2023-03-16T21:51:04.895Z,0.00
2023-03-16T21:53:34.343Z,0.05
2023-03-16T21:56:05.363Z,0.10
2023-03-16T21:58:34.269Z,-0.08
2023-03-16T22:01:04.539Z,-0.25
2023-03-16T22:03:50.405Z,-0.45
2023-03-16T22:06:21.560Z,-0.53
2023-03-16T22:08:51.491Z,-0.56
2023-03-16T22:11:23.207Z,-0.69
2023-03-16T22:13:53.840Z,-0.76
2023-03-16T22:16:24.497Z,-0.80
2023-03-16T22:18:58.080Z,-0.80
2023-03-16T22:21:30.558Z,-0.74
2023-03-16T22:24:03.316Z,-0.65
2023-03-16T22:26:34.013Z,-0.66
2023-03-16T22:29:20.675Z,-0.84
2023-03-16T22:31:52.346Z,-0.90
2023-03-16T22:34:34.052Z,-0.99
2023-03-16T22:37:06.826Z,-1.14
2023-03-16T22:39:39.219Z,-1.27
2023-03-16T22:42:24.776Z,-1.35
2023-03-16T22:44:53.276Z,-1.35
2023-03-16T22:47:26.674Z,-1.37
2023-03-16T22:49:57.496Z,-1.44
2023-03-16T22:52:31.389Z,-1.52
2023-03-16T22:55:01.936Z,-1.49
2023-03-16T22:57:33.958Z,-1.58
2023-03-16T23:00:11.353Z,-1.65
2023-03-16T23:02:39.921Z,-1.63
2023-03-16T23:05:28.145Z,-1.72
2023-03-16T23:07:58.140Z,-1.63
2023-03-16T23:10:31.652Z,-1.59
2023-03-16T23:13:03.705Z,-1.70
2023-03-16T23:15:35.864Z,-1.73
2023-03-16T23:18:07.549Z,-1.87
2023-03-16T23:20:39.167Z,-1.87
2023-03-16T23:23:08.019Z,-1.78
2023-03-16T23:25:37.818Z,-1.79
2023-03-16T23:28:07.352Z,-1.76
2023-03-16T23:30:39.273Z,-1.69
2023-03-16T23:33:16.311Z,-1.78
2023-03-16T23:35:47.807Z,-2.04
2023-03-16T23:38:21.269Z,-1.90
2023-03-16T23:40:56.308Z,-1.94
2023-03-16T23:43:25.613Z,-1.94
2023-03-16T23:45:55.930Z,-1.97
2023-03-16T23:48:28.930Z,-2.00
2023-03-16T23:51:02.525Z,-1.91
2023-03-16T23:53:33.263Z,-1.96
2023-03-16T23:56:02.235Z,-2.10
2023-03-16T23:58:32.810Z,-2.17
